createdAt,value
2019-02-11T00:00:47.499Z,11.40
2019-02-11T00:03:16.000Z,11.50
2019-02-11T00:05:44.359Z,11.60
2019-02-11T00:08:13.043Z,11.70
2019-02-11T00:10:41.489Z,11.60
2019-02-11T00:13:10.937Z,11.70
2019-02-11T00:15:39.586Z,11.60
2019-02-11T00:18:07.784Z,11.70
2019-02-11T00:20:36.129Z,11.70
2019-02-11T00:23:04.748Z,11.70
2019-02-11T00:25:33.181Z,11.90
2019-02-11T00:28:01.603Z,11.90
2019-02-11T00:30:30.046Z,12.00
2019-02-11T00:32:58.322Z,11.90
2019-02-11T00:35:26.841Z,11.90
2019-02-11T00:37:55.199Z,11.80
2019-02-11T00:40:23.500Z,11.70
2019-02-11T00:42:51.739Z,11.80
2019-02-11T00:45:20.213Z,11.80
2019-02-11T00:47:48.740Z,11.80
2019-02-11T00:50:16.657Z,11.80
2019-02-11T00:52:45.080Z,11.80
2019-02-11T00:55:13.365Z,11.80
2019-02-11T00:57:41.731Z,11.80
2019-02-11T01:00:11.694Z,11.60
2019-02-11T01:02:42.890Z,11.50
2019-02-11T01:05:11.248Z,11.40
2019-02-11T01:07:39.429Z,11.40
2019-02-11T01:10:09.385Z,11.40
2019-02-11T01:12:37.630Z,11.30
2019-02-11T01:15:06.903Z,11.00
2019-02-11T01:17:35.307Z,10.90
2019-02-11T01:20:03.878Z,10.90
2019-02-11T01:22:32.202Z,10.90
2019-02-11T01:25:00.411Z,10.80
2019-02-11T01:27:28.780Z,10.80
2019-02-11T01:29:57.170Z,10.80
2019-02-11T01:32:27.623Z,10.90
2019-02-11T01:34:55.814Z,10.90
2019-02-11T01:37:24.252Z,11.00
2019-02-11T01:39:52.561Z,11.20
2019-02-11T01:42:20.935Z,11.40
2019-02-11T01:44:49.369Z,11.40
2019-02-11T01:47:17.673Z,11.40
2019-02-11T01:49:45.962Z,11.50
2019-02-11T01:52:15.530Z,11.60
2019-02-11T01:54:43.881Z,11.60
2019-02-11T01:57:12.325Z,11.80
2019-02-11T01:59:40.985Z,11.90
2019-02-11T02:02:09.016Z,11.70
2019-02-11T02:04:37.156Z,11.60
2019-02-11T02:07:05.939Z,11.60
2019-02-11T02:09:34.443Z,11.60
2019-02-11T02:12:02.695Z,11.90
2019-02-11T02:14:31.267Z,12.10
2019-02-11T02:16:59.658Z,12.20
2019-02-11T02:19:28.136Z,12.20
2019-02-11T02:21:56.603Z,12.00
2019-02-11T02:24:24.594Z,12.10
2019-02-11T02:26:52.961Z,12.30
2019-02-11T02:29:21.546Z,12.50
2019-02-11T02:31:50.026Z,12.80
2019-02-11T02:34:19.532Z,12.80
2019-02-11T02:36:47.970Z,12.60
2019-02-11T02:39:16.300Z,12.20
2019-02-11T02:41:44.913Z,12.00
2019-02-11T02:44:13.354Z,11.70
2019-02-11T02:46:41.830Z,11.80
2019-02-11T02:49:10.311Z,12.00
2019-02-11T02:51:38.765Z,12.50
2019-02-11T02:54:07.030Z,12.70
2019-02-11T02:56:35.547Z,12.70
2019-02-11T02:59:04.002Z,12.70
2019-02-11T03:01:32.346Z,12.80
2019-02-11T03:04:00.757Z,12.90
2019-02-11T03:06:28.739Z,12.80
2019-02-11T03:08:56.765Z,12.80
2019-02-11T03:11:25.201Z,12.90
2019-02-11T03:13:53.240Z,13.00
2019-02-11T03:16:21.138Z,13.10
2019-02-11T03:18:49.518Z,13.00
2019-02-11T03:21:17.956Z,13.00
2019-02-11T03:23:45.926Z,13.10
2019-02-11T03:26:14.445Z,13.20
2019-02-11T03:28:42.925Z,13.10
2019-02-11T03:31:11.342Z,13.10
2019-02-11T03:33:39.821Z,13.10
2019-02-11T03:36:09.800Z,13.10
2019-02-11T03:38:38.239Z,13.00
2019-02-11T03:41:06.863Z,13.10
2019-02-11T03:43:35.242Z,13.20
2019-02-11T03:46:03.139Z,13.30
2019-02-11T03:48:31.079Z,13.20
2019-02-11T03:50:59.724Z,13.30
2019-02-11T03:53:28.131Z,13.30
2019-02-11T03:55:56.415Z,13.20
2019-02-11T03:58:24.998Z,13.30
2019-02-11T04:00:53.379Z,13.20
2019-02-11T04:03:21.432Z,13.10
2019-02-11T04:05:49.896Z,13.00
2019-02-11T04:08:18.218Z,12.60
2019-02-11T04:10:46.493Z,12.70
2019-02-11T04:13:14.471Z,12.50
2019-02-11T04:15:43.105Z,12.70
2019-02-11T04:18:11.507Z,12.70
2019-02-11T04:20:40.154Z,12.60
2019-02-11T04:23:08.594Z,12.40
2019-02-11T04:25:36.951Z,12.20
2019-02-11T04:28:05.502Z,12.10
2019-02-11T04:30:33.822Z,12.10
2019-02-11T04:33:02.085Z,12.10
2019-02-11T04:35:30.667Z,12.00
2019-02-11T04:38:00.073Z,11.80
2019-02-11T04:40:28.325Z,11.80
2019-02-11T04:42:56.798Z,11.90
2019-02-11T04:45:25.307Z,12.00
2019-02-11T04:47:53.669Z,11.90
2019-02-11T04:50:22.090Z,11.90
2019-02-11T04:52:50.590Z,11.80
2019-02-11T04:55:19.126Z,11.60
2019-02-11T04:57:47.611Z,11.50
2019-02-11T05:00:15.879Z,11.50
2019-02-11T05:02:44.348Z,11.40
2019-02-11T05:05:14.394Z,11.30
2019-02-11T05:07:42.645Z,11.30
2019-02-11T05:10:11.527Z,11.10
2019-02-11T05:12:40.025Z,11.00
2019-02-11T05:15:09.099Z,11.10
2019-02-11T05:17:37.455Z,11.00
2019-02-11T05:20:06.489Z,11.10
2019-02-11T05:22:34.969Z,11.10
2019-02-11T05:25:03.362Z,11.10
2019-02-11T05:27:31.595Z,11.00
2019-02-11T05:30:00.001Z,11.10
2019-02-11T05:32:28.481Z,11.00
2019-02-11T05:34:57.033Z,11.10
2019-02-11T05:37:24.941Z,11.20
2019-02-11T05:39:53.284Z,11.10
2019-02-11T05:42:21.796Z,11.30
2019-02-11T05:44:54.014Z,11.40
2019-02-11T05:47:20.382Z,11.50
2019-02-11T05:49:48.733Z,11.60
2019-02-11T05:52:16.638Z,12.10
2019-02-11T05:54:45.009Z,12.00
2019-02-11T05:57:13.555Z,12.00
2019-02-11T05:59:41.767Z,11.90
2019-02-11T06:02:10.145Z,11.70
2019-02-11T06:04:38.493Z,11.50
2019-02-11T06:07:09.773Z,11.40
2019-02-11T06:09:38.253Z,11.40
2019-02-11T06:12:06.338Z,11.40
2019-02-11T06:14:34.608Z,11.50
2019-02-11T06:17:02.934Z,11.50
2019-02-11T06:19:31.406Z,11.30
2019-02-11T06:21:59.334Z,11.40
2019-02-11T06:24:27.803Z,11.80
2019-02-11T06:26:55.874Z,11.60
2019-02-11T06:29:24.164Z,11.50
2019-02-11T06:31:52.420Z,11.60
2019-02-11T06:34:20.754Z,11.60
2019-02-11T06:36:49.198Z,11.90
2019-02-11T06:39:17.555Z,11.80
2019-02-11T06:41:47.161Z,11.60
2019-02-11T06:44:15.744Z,11.60
2019-02-11T06:46:44.189Z,11.50
2019-02-11T06:49:12.582Z,11.60
2019-02-11T06:51:40.981Z,11.60
2019-02-11T06:54:09.427Z,11.80
2019-02-11T06:56:37.817Z,11.90
2019-02-11T06:59:06.106Z,12.10
2019-02-11T07:01:34.389Z,12.20
2019-02-11T07:04:02.664Z,12.30
2019-02-11T07:06:50.089Z,12.30
2019-02-11T07:09:20.484Z,12.30
2019-02-11T07:11:48.761Z,12.50
2019-02-11T07:14:17.272Z,12.50
2019-02-11T07:16:45.809Z,12.50
2019-02-11T07:19:14.098Z,12.40
2019-02-11T07:21:42.415Z,12.30
2019-02-11T07:24:10.672Z,12.20
2019-02-11T07:26:39.031Z,12.30
2019-02-11T07:29:07.544Z,12.30
2019-02-11T07:31:36.153Z,12.30
2019-02-11T07:34:04.524Z,12.30
2019-02-11T07:36:32.981Z,12.30
2019-02-11T07:39:01.359Z,12.40
2019-02-11T07:41:52.163Z,12.50
2019-02-11T07:44:30.109Z,12.50
2019-02-11T07:47:00.641Z,12.60
2019-02-11T07:49:29.174Z,12.70
2019-02-11T07:51:57.654Z,12.90
2019-02-11T07:54:26.029Z,12.90
2019-02-11T07:56:54.310Z,12.80
2019-02-11T07:59:22.689Z,12.80
2019-02-11T08:01:51.065Z,12.70
2019-02-11T08:04:19.553Z,12.80
2019-02-11T08:06:47.900Z,12.80
2019-02-11T08:09:16.301Z,13.00
2019-02-11T08:11:44.680Z,12.90
2019-02-11T08:14:13.120Z,13.00
2019-02-11T08:16:41.488Z,12.90
2019-02-11T08:19:09.815Z,13.00
2019-02-11T08:21:38.158Z,13.00
2019-02-11T08:24:06.382Z,12.90
2019-02-11T08:26:34.749Z,13.10
2019-02-11T08:29:02.791Z,13.20
2019-02-11T08:31:31.397Z,13.30
2019-02-11T08:33:59.988Z,13.70
2019-02-11T08:36:28.561Z,13.80
2019-02-11T08:38:56.836Z,14.00
2019-02-11T08:41:25.116Z,14.10
2019-02-11T08:43:53.656Z,14.30
2019-02-11T08:46:23.820Z,14.50
2019-02-11T08:48:52.193Z,14.70
2019-02-11T08:51:20.836Z,14.80
2019-02-11T08:53:49.141Z,14.90
2019-02-11T08:56:17.473Z,15.20
2019-02-11T08:58:45.883Z,15.20
2019-02-11T09:01:14.168Z,15.10
2019-02-11T09:03:42.567Z,15.40
2019-02-11T09:06:11.147Z,15.70
2019-02-11T09:08:39.626Z,16.10
2019-02-11T09:11:08.026Z,16.30
2019-02-11T09:13:36.429Z,17.10
2019-02-11T09:16:05.169Z,17.40
2019-02-11T09:18:33.662Z,16.70
2019-02-11T09:21:02.035Z,16.80
2019-02-11T09:23:30.157Z,16.90
2019-02-11T09:25:58.286Z,16.90
2019-02-11T09:28:26.708Z,17.50
2019-02-11T09:30:55.335Z,17.90
2019-02-11T09:33:23.714Z,18.40
2019-02-11T09:35:52.162Z,19.20
2019-02-11T09:38:20.374Z,20.20
2019-02-11T09:40:48.625Z,21.10
2019-02-11T09:43:17.122Z,21.90
2019-02-11T09:45:45.504Z,22.10
2019-02-11T09:48:15.121Z,21.60
2019-02-11T09:50:45.868Z,21.10
2019-02-11T09:53:14.114Z,21.30
2019-02-11T09:55:42.581Z,21.80
2019-02-11T09:58:11.040Z,20.40
2019-02-11T10:00:39.561Z,19.50
2019-02-11T10:03:08.035Z,19.90
2019-02-11T10:05:37.358Z,19.50
2019-02-11T10:08:05.903Z,19.40
2019-02-11T10:10:34.502Z,19.20
2019-02-11T10:13:02.946Z,18.90
2019-02-11T10:15:31.213Z,18.70
2019-02-11T10:17:59.435Z,18.40
2019-02-11T10:20:28.016Z,18.90
2019-02-11T10:22:56.404Z,18.90
2019-02-11T10:25:25.755Z,19.60
2019-02-11T10:27:55.962Z,21.10
2019-02-11T10:30:24.395Z,21.50
2019-02-11T10:32:52.864Z,21.70
2019-02-11T10:35:21.355Z,22.50
2019-02-11T10:37:58.743Z,23.00
2019-02-11T10:40:27.175Z,22.90
2019-02-11T10:42:55.470Z,23.00
2019-02-11T10:45:24.093Z,21.80
2019-02-11T10:47:52.566Z,20.40
2019-02-11T10:50:22.170Z,20.20
2019-02-11T10:52:50.657Z,19.30
2019-02-11T10:55:18.992Z,19.10
2019-02-11T10:57:47.308Z,19.10
2019-02-11T11:00:20.493Z,18.80
2019-02-11T11:02:48.974Z,18.90
2019-02-11T11:05:17.352Z,19.10
2019-02-11T11:07:46.171Z,19.20
2019-02-11T11:10:26.066Z,19.40
2019-02-11T11:12:54.541Z,19.20
2019-02-11T11:15:23.322Z,18.90
2019-02-11T11:17:51.836Z,18.80
2019-02-11T11:20:20.418Z,18.60
2019-02-11T11:22:48.701Z,18.80
2019-02-11T11:25:17.709Z,18.40
2019-02-11T11:27:46.126Z,18.40
2019-02-11T11:30:15.122Z,18.70
2019-02-11T11:32:43.773Z,18.80
2019-02-11T11:35:12.494Z,18.50
2019-02-11T11:37:40.909Z,19.20
2019-02-11T11:40:12.053Z,19.60
2019-02-11T11:42:40.618Z,19.60
2019-02-11T11:45:11.345Z,19.80
2019-02-11T11:47:39.611Z,19.80
2019-02-11T11:50:08.383Z,20.00
2019-02-11T11:52:36.773Z,19.70
2019-02-11T11:55:06.032Z,19.60
2019-02-11T11:57:34.505Z,19.20
2019-02-11T12:00:04.621Z,19.30
2019-02-11T12:02:33.197Z,19.30
2019-02-11T12:05:01.651Z,18.90
2019-02-11T12:07:30.055Z,18.70
2019-02-11T12:09:58.609Z,18.60
2019-02-11T12:12:26.912Z,18.60
2019-02-11T12:14:55.221Z,18.60
2019-02-11T12:17:23.644Z,19.20
2019-02-11T12:19:56.661Z,19.30
2019-02-11T12:22:24.609Z,19.90
2019-02-11T12:24:53.207Z,20.30
2019-02-11T12:27:21.657Z,21.30
2019-02-11T12:29:49.969Z,21.10
2019-02-11T12:32:18.474Z,20.70
2019-02-11T12:34:46.809Z,21.00
2019-02-11T12:37:15.081Z,21.10
2019-02-11T12:39:43.075Z,21.10
2019-02-11T12:42:11.461Z,20.80
2019-02-11T12:44:39.698Z,20.20
2019-02-11T12:47:14.151Z,20.00
2019-02-11T12:49:38.325Z,19.10
2019-02-11T12:52:06.601Z,18.50
2019-02-11T12:54:36.617Z,18.10
2019-02-11T12:57:04.981Z,17.80
2019-02-11T12:59:33.461Z,17.60
2019-02-11T13:02:01.962Z,17.30
2019-02-11T13:04:30.543Z,17.30
2019-02-11T13:06:58.801Z,17.40
2019-02-11T13:09:27.181Z,17.20
2019-02-11T13:11:55.557Z,17.40
2019-02-11T13:14:24.042Z,17.30
2019-02-11T13:16:52.442Z,17.20
2019-02-11T13:19:20.692Z,17.20
2019-02-11T13:21:48.966Z,17.30
2019-02-11T13:24:17.550Z,17.40
2019-02-11T13:26:46.098Z,17.30
2019-02-11T13:29:14.431Z,17.40
2019-02-11T13:31:42.794Z,17.40
2019-02-11T13:34:11.054Z,17.30
2019-02-11T13:36:39.141Z,17.40
2019-02-11T13:39:07.497Z,16.90
2019-02-11T13:41:35.992Z,15.90
2019-02-11T13:44:04.354Z,15.50
2019-02-11T13:46:32.707Z,15.30
2019-02-11T13:49:00.943Z,14.80
2019-02-11T13:51:29.322Z,14.60
2019-02-11T13:53:57.995Z,13.70
2019-02-11T13:56:27.329Z,13.50
2019-02-11T13:58:55.711Z,13.40
2019-02-11T14:01:24.166Z,12.90
2019-02-11T14:03:52.438Z,12.60
2019-02-11T14:06:20.806Z,12.70
2019-02-11T14:08:49.163Z,12.90
2019-02-11T14:11:36.411Z,13.10
2019-02-11T14:14:04.979Z,13.30
2019-02-11T14:16:33.280Z,13.20
2019-02-11T14:19:01.738Z,13.20
2019-02-11T14:21:30.212Z,13.30
2019-02-11T14:23:58.586Z,13.40
2019-02-11T14:26:27.070Z,13.20
2019-02-11T14:28:55.553Z,13.30
2019-02-11T14:31:23.983Z,13.10
2019-02-11T14:33:52.411Z,13.10
2019-02-11T14:36:21.033Z,13.20
2019-02-11T14:38:49.431Z,13.30
2019-02-11T14:41:17.851Z,13.50
2019-02-11T14:43:46.395Z,13.50
2019-02-11T14:46:14.547Z,13.50
2019-02-11T14:48:42.760Z,13.40
2019-02-11T14:51:11.153Z,13.20
2019-02-11T14:53:39.579Z,12.60
2019-02-11T14:56:08.013Z,12.60
2019-02-11T14:58:38.042Z,12.60
2019-02-11T15:01:06.508Z,12.30
2019-02-11T15:03:34.946Z,12.00
2019-02-11T15:06:03.367Z,12.20
2019-02-11T15:08:31.914Z,12.40
2019-02-11T15:11:00.313Z,12.70
2019-02-11T15:13:28.708Z,12.80
2019-02-11T15:15:56.881Z,12.70
2019-02-11T15:18:25.256Z,12.40
2019-02-11T15:20:53.845Z,12.20
2019-02-11T15:23:22.320Z,12.20
2019-02-11T15:25:50.697Z,12.20
2019-02-11T15:28:19.281Z,12.30
2019-02-11T15:30:47.555Z,12.20
2019-02-11T15:33:16.036Z,12.00
2019-02-11T15:35:44.521Z,12.30
2019-02-11T15:38:12.996Z,12.20
2019-02-11T15:40:41.332Z,12.00
2019-02-11T15:43:09.554Z,12.00
2019-02-11T15:45:38.132Z,12.00
2019-02-11T15:48:06.612Z,11.80
2019-02-11T15:50:34.973Z,11.90
2019-02-11T15:53:03.366Z,11.80
2019-02-11T15:55:31.846Z,11.80
2019-02-11T15:58:00.104Z,11.80
2019-02-11T16:00:30.345Z,11.60
2019-02-11T16:02:58.625Z,11.30
2019-02-11T16:05:27.263Z,11.20
2019-02-11T16:07:55.385Z,11.00
2019-02-11T16:10:25.046Z,11.00
2019-02-11T16:12:53.217Z,11.00
2019-02-11T16:15:21.527Z,11.00
2019-02-11T16:17:49.815Z,11.00
2019-02-11T16:20:18.190Z,10.70
2019-02-11T16:22:46.667Z,10.70
2019-02-11T16:25:14.946Z,10.70
2019-02-11T16:27:43.424Z,10.50
2019-02-11T16:30:13.852Z,10.40
2019-02-11T16:32:42.227Z,10.40
2019-02-11T16:35:11.200Z,10.50
2019-02-11T16:37:40.546Z,10.60
2019-02-11T16:40:11.358Z,10.70
2019-02-11T16:42:39.803Z,10.60
2019-02-11T16:45:08.730Z,10.70
2019-02-11T16:47:37.004Z,10.60
2019-02-11T16:50:05.731Z,10.70
2019-02-11T16:52:34.143Z,11.00
2019-02-11T16:55:02.352Z,11.10
2019-02-11T16:57:30.646Z,10.90
2019-02-11T16:59:58.810Z,11.10
2019-02-11T17:02:27.385Z,11.20
2019-02-11T17:04:55.943Z,11.20
2019-02-11T17:07:24.292Z,11.30
2019-02-11T17:09:52.682Z,11.20
2019-02-11T17:12:21.097Z,11.30
2019-02-11T17:14:49.465Z,10.90
2019-02-11T17:17:17.804Z,11.00
2019-02-11T17:19:46.181Z,11.10
2019-02-11T17:22:14.925Z,11.20
2019-02-11T17:24:43.285Z,11.30
2019-02-11T17:27:11.526Z,11.20
2019-02-11T17:29:39.930Z,11.20
2019-02-11T17:32:08.129Z,11.00
2019-02-11T17:34:36.582Z,11.00
2019-02-11T17:37:04.959Z,11.10
2019-02-11T17:39:33.230Z,11.20
2019-02-11T17:42:01.596Z,11.10
2019-02-11T17:44:29.988Z,11.00
2019-02-11T17:46:58.482Z,10.70
2019-02-11T17:49:27.034Z,10.10
2019-02-11T17:51:55.367Z,10.10
2019-02-11T17:54:23.822Z,10.00
2019-02-11T17:56:52.418Z,10.10
2019-02-11T17:59:20.760Z,10.10
2019-02-11T18:01:49.190Z,10.30
2019-02-11T18:04:18.549Z,10.50
2019-02-11T18:06:46.925Z,10.30
2019-02-11T18:09:15.525Z,10.50
2019-02-11T18:11:44.086Z,10.40
2019-02-11T18:14:12.587Z,10.50
2019-02-11T18:16:40.966Z,10.40
2019-02-11T18:19:09.318Z,10.50
2019-02-11T18:21:37.683Z,10.60
2019-02-11T18:24:06.053Z,10.70
2019-02-11T18:26:34.459Z,10.60
2019-02-11T18:29:02.942Z,10.70
2019-02-11T18:31:31.544Z,10.60
2019-02-11T18:34:00.082Z,10.70
2019-02-11T18:36:28.258Z,10.50
2019-02-11T18:38:56.511Z,10.40
2019-02-11T18:41:24.971Z,10.60
2019-02-11T18:43:53.326Z,10.50
2019-02-11T18:46:21.693Z,10.60
2019-02-11T18:48:50.046Z,10.40
2019-02-11T18:51:18.461Z,10.50
2019-02-11T18:53:46.979Z,10.40
2019-02-11T18:56:15.378Z,10.30
2019-02-11T18:58:44.006Z,10.40
2019-02-11T19:01:12.441Z,10.40
2019-02-11T19:03:40.917Z,10.40
2019-02-11T19:06:10.982Z,10.50
2019-02-11T19:08:39.378Z,10.30
2019-02-11T19:11:07.700Z,10.40
2019-02-11T19:13:36.116Z,10.30
2019-02-11T19:16:04.390Z,10.20
2019-02-11T19:18:32.848Z,10.20
2019-02-11T19:21:01.184Z,10.00
2019-02-11T19:23:29.630Z,9.90
2019-02-11T19:25:57.987Z,10.10
2019-02-11T19:28:26.293Z,10.10
2019-02-11T19:30:54.554Z,10.00
2019-02-11T19:33:23.003Z,10.10
2019-02-11T19:35:51.375Z,10.00
2019-02-11T19:38:19.799Z,9.80
2019-02-11T19:40:48.135Z,9.80
2019-02-11T19:43:16.427Z,9.90
2019-02-11T19:45:44.823Z,9.70
2019-02-11T19:48:13.304Z,9.60
2019-02-11T19:50:41.670Z,9.60
2019-02-11T19:53:09.970Z,9.70
2019-02-11T19:55:38.442Z,9.60
2019-02-11T19:58:06.921Z,9.60
2019-02-11T20:00:35.504Z,9.60
2019-02-11T20:03:03.879Z,9.50
2019-02-11T20:05:32.463Z,9.50
2019-02-11T20:08:02.614Z,9.40
2019-02-11T20:10:31.060Z,9.40
2019-02-11T20:12:59.339Z,9.40
2019-02-11T20:15:28.026Z,9.60
2019-02-11T20:17:56.462Z,9.60
2019-02-11T20:20:24.883Z,9.50
2019-02-11T20:22:53.164Z,9.40
2019-02-11T20:25:21.636Z,9.40
2019-02-11T20:27:50.120Z,9.30
2019-02-11T20:30:20.748Z,9.30
2019-02-11T20:32:49.294Z,9.30
2019-02-11T20:35:17.607Z,9.30
2019-02-11T20:37:46.021Z,9.30
2019-02-11T20:40:16.053Z,9.30
2019-02-11T20:42:44.394Z,9.30
2019-02-11T20:45:24.094Z,9.40
2019-02-11T20:47:52.453Z,9.30
2019-02-11T20:50:20.902Z,9.30
2019-02-11T20:52:49.701Z,9.40
2019-02-11T20:55:18.564Z,9.40
2019-02-11T20:57:47.055Z,9.60
2019-02-11T21:00:17.850Z,9.60
2019-02-11T21:02:46.271Z,9.70
2019-02-11T21:05:14.849Z,9.50
2019-02-11T21:07:43.730Z,9.60
2019-02-11T21:10:13.337Z,9.50
2019-02-11T21:12:41.725Z,9.60
2019-02-11T21:15:11.519Z,9.70
2019-02-11T21:17:40.104Z,9.70
2019-02-11T21:20:17.355Z,9.70
2019-02-11T21:22:41.190Z,9.80
2019-02-11T21:25:09.650Z,9.80
2019-02-11T21:27:38.225Z,9.70
2019-02-11T21:30:07.368Z,9.70
2019-02-11T21:32:35.859Z,9.80
2019-02-11T21:35:04.183Z,9.80
2019-02-11T21:37:32.658Z,9.80
2019-02-11T21:40:01.137Z,9.80
2019-02-11T21:42:29.538Z,9.80
2019-02-11T21:44:58.098Z,9.80
2019-02-11T21:47:26.486Z,9.90
2019-02-11T21:49:54.780Z,10.00
2019-02-11T21:52:23.322Z,9.90
2019-02-11T21:54:51.601Z,10.00
2019-02-11T21:57:19.993Z,9.90
2019-02-11T21:59:48.441Z,9.90
2019-02-11T22:02:16.854Z,9.80
2019-02-11T22:04:45.229Z,9.70
2019-02-11T22:07:13.705Z,9.80
2019-02-11T22:09:42.164Z,9.90
2019-02-11T22:12:11.484Z,9.70
2019-02-11T22:14:43.138Z,9.80
2019-02-11T22:17:11.516Z,9.80
2019-02-11T22:19:40.101Z,9.70
2019-02-11T22:22:08.784Z,9.70
2019-02-11T22:24:37.078Z,9.80
2019-02-11T22:27:05.295Z,9.60
2019-02-11T22:29:33.783Z,9.60
2019-02-11T22:32:02.107Z,9.80
2019-02-11T22:34:30.374Z,9.70
2019-02-11T22:36:58.748Z,9.70
2019-02-11T22:39:27.124Z,9.70
2019-02-11T22:41:55.514Z,9.60
2019-02-11T22:44:24.126Z,9.30
2019-02-11T22:46:52.455Z,9.20
2019-02-11T22:49:20.841Z,9.40
2019-02-11T22:51:49.423Z,9.40
2019-02-11T22:54:17.911Z,9.40
2019-02-11T22:56:46.185Z,9.40
2019-02-11T22:59:14.660Z,9.40
2019-02-11T23:01:42.989Z,9.40
2019-02-11T23:04:11.288Z,9.40
2019-02-11T23:06:39.753Z,9.30
2019-02-11T23:09:11.550Z,9.20
2019-02-11T23:11:40.031Z,9.40
2019-02-11T23:14:09.835Z,9.40
2019-02-11T23:16:38.759Z,9.30
2019-02-11T23:19:07.197Z,9.20
2019-02-11T23:21:35.693Z,9.10
2019-02-11T23:24:04.190Z,8.90
2019-02-11T23:26:32.657Z,8.90
2019-02-11T23:29:01.445Z,9.10
2019-02-11T23:31:29.913Z,9.10
2019-02-11T23:33:58.294Z,8.90
2019-02-11T23:36:26.649Z,8.90
2019-02-11T23:38:54.945Z,8.90
2019-02-11T23:41:23.236Z,8.80
2019-02-11T23:43:51.606Z,8.80
2019-02-11T23:46:20.978Z,8.80
2019-02-11T23:48:49.644Z,8.90
2019-02-11T23:51:18.277Z,8.90
2019-02-11T23:53:46.725Z,9.00
2019-02-11T23:56:15.035Z,9.20
2019-02-11T23:58:43.384Z,9.40
